Flight Track Log - Related Links

Times and Time Zones

All times are in EDT time to prevent confusion due to time zone crossing. See the OPT732 flight status page for this flight to view local times or setup timezone preferences in your user account.

Time Position Orientation Groundspeed Altitude Reporting Facility
EDT Latitude Longitude Course Direction KTS MPH feet Rate Location/Type
Sat 03:28:19 PM 36.1942 -95.8997 270° West 160 184 1,300  Level Kansas City Center
Sat 03:29:07 PM 36.1944 -95.9539 270° West 216 249 3,300 2,917 Climbing Kansas City Center
Sat 03:30:08 PM 36.1658 -96.0353 246° West 283 326 6,600 3,303 Climbing Kansas City Center
Sat 03:30:56 PM 36.1000 -96.0747 206° Southwest 330 380 9,300 2,912 Climbing Kansas City Center
Sat 03:31:16 PM 36.0881 -96.0775 191° South 309 356 9,900 3,111 Climbing Kansas City Center
Sat 03:32:17 PM 35.9817 -96.0431 165° South 342 394 13,500 3,024 Climbing Kansas City Center
Sat 03:33:19 PM 35.8983 -95.9706 145° Southeast 362 417 16,100 2,341 Climbing Kansas City Center
Sat 03:34:20 PM 35.8094 -95.8919 144° Southeast 380 437 18,300 2,410 Climbing Kansas City Center
Sat 03:35:21 PM 35.7097 -95.8033 144° Southeast 424 488 21,000 2,976 Climbing Kansas City Center
Sat 03:36:23 PM 35.6078 -95.7128 144° Southeast 444 511 24,400 3,067 Climbing Kansas City Center
Sat 03:36:51 PM 35.5611 -95.6733 145° Southeast 450 518 25,600 2,455 Climbing Fort Worth Center
Sat 03:37:51 PM 35.4533 -95.5814 145° Southeast 462 532 28,000 2,200 Climbing Fort Worth Center
Sat 03:38:51 PM 35.3475 -95.4692 139° Southeast 485 558 30,000 2,200 Climbing Fort Worth Center
Sat 03:39:51 PM 35.2514 -95.3392 132° Southeast 503 579 32,400 1,753 Climbing Fort Worth Center
Sat 03:40:20 PM 35.1906 -95.2606 133° Southeast 513 590 32,600 876 Climbing Memphis Center
Sat 03:41:20 PM 35.0856 -95.1150 131° Southeast 525 604 33,700 1,300 Climbing Memphis Center
Sat 03:42:20 PM 34.9764 -94.9719 133° Southeast 557 641 35,200 1,550 Climbing Memphis Center
Sat 03:43:20 PM 34.8708 -94.8322 133° Southeast 567 652 36,800 1,700 Climbing Memphis Center
Sat 03:44:20 PM 34.7792 -94.7108 133° Southeast 551 634 38,600 1,650 Climbing Memphis Center
Sat 03:45:20 PM 34.6944 -94.5628 125° Southeast 545 627 40,100 1,500 Climbing Memphis Center
Sat 03:46:20 PM 34.6244 -94.4103 119° Southeast 535 616 41,600 1,500 Climbing Memphis Center
Sat 03:47:20 PM 34.5542 -94.2608 120° Southeast 519 597 43,100 1,350 Climbing Memphis Center
Sat 03:48:20 PM 34.4856 -94.1164 120° Southeast 505 581 44,300 850 Climbing Memphis Center
Sat 03:49:20 PM 34.4089 -93.9519 119° Southeast 499 574 44,800 350 Climbing Memphis Center
Sat 03:50:20 PM 34.3400 -93.8083 120° Southeast 505 581 45,000 100 Climbing Memphis Center
Sat 03:51:20 PM 34.2689 -93.6622 120° Southeast 505 581 45,000  Level Memphis Center
Sat 03:52:20 PM 34.1956 -93.5061 120° Southeast 515 593 45,000  Level Memphis Center
Sat 03:53:20 PM 34.1222 -93.3556 120° Southeast 521 600 45,000  Level Memphis Center
Sat 03:54:20 PM 34.0467 -93.2000 120° Southeast 521 600 45,000  Level Memphis Center
Sat 03:55:20 PM 33.9747 -93.0497 120° Southeast 521 600 45,000  Level Memphis Center
Sat 03:57:27 PM 33.8236 -92.7408 120° Southeast 524 603 45,000  Level Fort Worth Center
Sat 03:58:27 PM 33.7531 -92.5897 119° Southeast 524 603 45,000  Level Fort Worth Center
Sat 03:59:08 PM 33.6936 -92.4744 122° Southeast 524 603 45,000  Level Memphis Center
Sat 04:00:08 PM 33.6167 -92.3228 121° Southeast 518 596 45,000  Level Memphis Center
Sat 04:01:08 PM 33.5397 -92.1717 121° Southeast 518 596 45,000  Level Memphis Center
Sat 04:02:08 PM 33.4667 -92.0206 120° Southeast 518 596 45,000  Level Memphis Center
Sat 04:03:08 PM 33.3956 -91.8750 120° Southeast 518 596 45,000  Level Memphis Center
Sat 04:04:08 PM 33.3242 -91.7247 120° Southeast 518 596 45,000  Level Memphis Center
Sat 04:05:08 PM 33.2400 -91.5917 127° Southeast 527 606 45,000  Level Memphis Center
Sat 04:06:08 PM 33.1703 -91.4467 120° Southeast 527 606 45,000  Level Memphis Center
Sat 04:07:08 PM 33.0942 -91.2994 122° Southeast 527 606 45,000  Level Memphis Center
Sat 04:08:08 PM 33.0181 -91.1525 122° Southeast 527 606 45,000  Level Memphis Center
Sat 04:09:08 PM 32.9436 -91.0083 122° Southeast 522 601 45,000  Level Memphis Center
Sat 04:10:08 PM 32.8692 -90.8619 121° Southeast 517 595 45,000  Level Memphis Center
Sat 04:11:08 PM 32.7947 -90.7181 122° Southeast 517 595 45,000  Level Memphis Center
Sat 04:12:08 PM 32.7219 -90.5747 121° Southeast 517 595 45,000  Level Memphis Center
Sat 04:13:08 PM 32.6447 -90.4289 122° Southeast 517 595 45,000  Level Memphis Center
Sat 04:14:08 PM 32.5675 -90.2833 122° Southeast 517 595 45,000  Level Memphis Center
Sat 04:15:08 PM 32.4922 -90.1381 122° Southeast 517 595 45,000 -350 Level Memphis Center
Sat 04:16:08 PM 32.4167 -89.9733 118° Southeast 517 595 44,300 -750 Descending Memphis Center
Sat 04:17:08 PM 32.3450 -89.8164 118° Southeast 528 608 43,500 -900 Descending Memphis Center
Sat 04:18:08 PM 32.2711 -89.6594 119° Southeast 538 619 42,500 -1,200 Descending Memphis Center
Sat 04:19:08 PM 32.1869 -89.5178 125° Southeast 538 619 41,100 -1,500 Descending Memphis Center
Sat 04:20:08 PM 32.0939 -89.3889 130° Southeast 530 610 39,500 -1,550 Descending Memphis Center
Sat 04:21:08 PM 31.9908 -89.2747 137° Southeast 511 588 38,000 -6,250 Descending Memphis Center
Sat 04:22:08 PM 31.8853 -89.1561 136° Southeast 506 582 27,000 -2,874 Descending Memphis Center
Sat 04:23:55 PM 31.7178 -88.9497 134° Southeast 544 626 30,000  Climbing Houston Center
Sat 04:24:57 PM 31.5928 -88.7953 134° Southeast 540 621 27,000 -1,463 Descending Houston Center
Sat 04:25:58 PM 31.4969 -88.6786 134° Southeast 499 574 27,000  Level Houston Center
Sat 04:27:00 PM 31.3964 -88.5583 134° Southeast 517 595 27,000 -145 Level Houston Center
Sat 04:28:02 PM 31.2933 -88.4328 134° Southeast 532 612 26,700 -629 Descending Houston Center
Sat 04:29:04 PM 31.1792 -88.2969 134° Southeast 532 612 25,700 -927 Descending Houston Center
Sat 04:30:05 PM 31.0783 -88.1753 134° Southeast 527 606 24,800 -829 Descending Houston Center
Sat 04:31:07 PM 30.9808 -88.0572 134° Southeast 522 601 24,000 -387 Descending Houston Center
Sat 04:32:09 PM 30.8833 -87.9417 134° Southeast 505 581 24,000  Level Houston Center
Sat 04:33:11 PM 30.7950 -87.8250 131° Southeast 492 566 24,000  Level Houston Center
Sat 04:34:13 PM 30.7686 -87.6714 101° East 500 575 24,000 -563 Level Houston Center
Sat 04:35:19 PM 30.7808 -87.4792 86° East 500 575 22,800 -1,476 Descending Jacksonville Center
Sat 04:36:19 PM 30.7883 -87.3272 87° East 485 558 20,900 -1,950 Descending Jacksonville Center
Sat 04:37:19 PM 30.7978 -87.1803 86° East 467 537 18,900 -2,050 Descending Jacksonville Center
Sat 04:38:19 PM 30.8067 -87.0356 86° East 452 520 16,800 -2,200 Descending Jacksonville Center
Sat 04:39:19 PM 30.8150 -86.9053 86° East 427 491 14,500 -2,400 Descending Jacksonville Center
Sat 04:40:19 PM 30.8250 -86.7847 84° East 396 456 12,000 -2,550 Descending Jacksonville Center
Sat 04:41:19 PM 30.8197 -86.6781 93° East 355 409 9,400 -2,150 Descending Jacksonville Center
Sat 04:42:19 PM 30.7653 -86.6156 135° Southeast 284 327 7,700 -1,700 Descending Jacksonville Center
Sat 04:43:19 PM 30.6958 -86.5669 149° Southeast 266 306 6,000 -1,475 Descending Jacksonville Center
Sat 04:44:21 PM 30.6283 -86.5136 146° Southeast 286 329 4,700 -1,350 Descending Jacksonville Center
Sat 04:45:19 PM 30.5608 -86.4628 147° Southeast 291 335 3,300 -1,068 Descending Jacksonville Center
Sat 04:46:19 PM 30.5039 -86.4172 145° Southeast 276 318 2,600 -350 Descending Jacksonville Center
Sat 04:47:19 PM 30.4486 -86.3742 146° Southeast 258 297 2,600  Level Jacksonville Center
Sat 04:48:19 PM 30.3933 -86.3314 146° Southeast 246 283 2,600  Level Jacksonville Center

Login

Don't have an account? Register now (free) for customized features, flight alerts, and more!